sensor_id;sensor_type;location;lat;lon;timestamp;P1;durP1;ratioP1;P2;durP2;ratioP2
23768;SDS011;12064;50.890;5.424;2023-02-07T00:08:45;1.58;;;1.35;;
23768;SDS011;12064;50.890;5.424;2023-02-07T00:17:36;1.50;;;1.33;;
23768;SDS011;12064;50.890;5.424;2023-02-07T00:26:28;2.13;;;1.48;;
23768;SDS011;12064;50.890;5.424;2023-02-07T00:35:18;1.85;;;1.30;;
23768;SDS011;12064;50.890;5.424;2023-02-07T00:44:12;1.50;;;1.40;;
23768;SDS011;12064;50.890;5.424;2023-02-07T00:53:05;1.70;;;1.35;;
23768;SDS011;12064;50.890;5.424;2023-02-07T01:01:56;1.50;;;1.40;;
23768;SDS011;12064;50.890;5.424;2023-02-07T01:10:47;2.17;;;1.50;;
23768;SDS011;12064;50.890;5.424;2023-02-07T01:19:38;1.75;;;1.50;;
23768;SDS011;12064;50.890;5.424;2023-02-07T01:28:32;1.88;;;1.30;;
23768;SDS011;12064;50.890;5.424;2023-02-07T01:37:22;1.73;;;1.33;;
23768;SDS011;12064;50.890;5.424;2023-02-07T01:46:13;1.63;;;1.53;;
23768;SDS011;12064;50.890;5.424;2023-02-07T01:55:08;1.48;;;1.38;;
23768;SDS011;12064;50.890;5.424;2023-02-07T02:04:06;1.52;;;1.30;;
23768;SDS011;12064;50.890;5.424;2023-02-07T02:51:02;1.55;;;1.30;;
23768;SDS011;12064;50.890;5.424;2023-02-07T03:27:17;1.60;;;1.50;;
23768;SDS011;12064;50.890;5.424;2023-02-07T03:45:14;1.77;;;1.27;;
23768;SDS011;12064;50.890;5.424;2023-02-07T03:54:07;1.65;;;1.23;;
23768;SDS011;12064;50.890;5.424;2023-02-07T04:02:57;1.47;;;1.37;;
23768;SDS011;12064;50.890;5.424;2023-02-07T04:21:15;2.30;;;1.30;;
23768;SDS011;12064;50.890;5.424;2023-02-07T04:39:40;1.45;;;1.20;;
23768;SDS011;12064;50.890;5.424;2023-02-07T04:48:31;1.40;;;1.30;;
23768;SDS011;12064;50.890;5.424;2023-02-07T04:57:26;1.48;;;1.33;;
23768;SDS011;12064;50.890;5.424;2023-02-07T05:06:20;1.40;;;1.30;;
23768;SDS011;12064;50.890;5.424;2023-02-07T05:15:13;1.17;;;1.08;;
23768;SDS011;12064;50.890;5.424;2023-02-07T05:24:05;1.13;;;1.02;;
23768;SDS011;12064;50.890;5.424;2023-02-07T05:32:56;1.40;;;1.27;;
23768;SDS011;12064;50.890;5.424;2023-02-07T05:51:17;2.28;;;1.30;;
23768;SDS011;12064;50.890;5.424;2023-02-07T06:00:15;1.30;;;1.20;;
23768;SDS011;12064;50.890;5.424;2023-02-07T06:09:07;1.17;;;1.10;;
23768;SDS011;12064;50.890;5.424;2023-02-07T06:18:00;1.10;;;1.00;;
23768;SDS011;12064;50.890;5.424;2023-02-07T06:27:10;1.83;;;1.45;;
23768;SDS011;12064;50.890;5.424;2023-02-07T06:36:00;1.48;;;1.38;;
23768;SDS011;12064;50.890;5.424;2023-02-07T06:44:51;2.25;;;1.48;;
23768;SDS011;12064;50.890;5.424;2023-02-07T06:53:43;1.30;;;1.20;;
23768;SDS011;12064;50.890;5.424;2023-02-07T07:02:40;2.55;;;1.58;;
23768;SDS011;12064;50.890;5.424;2023-02-07T07:11:34;2.75;;;1.50;;
23768;SDS011;12064;50.890;5.424;2023-02-07T07:20:27;2.25;;;1.40;;
23768;SDS011;12064;50.890;5.424;2023-02-07T07:29:18;1.30;;;1.20;;
23768;SDS011;12064;50.890;5.424;2023-02-07T07:38:09;1.60;;;1.45;;
23768;SDS011;12064;50.890;5.424;2023-02-07T07:47:00;1.75;;;1.52;;
23768;SDS011;12064;50.890;5.424;2023-02-07T07:55:52;1.67;;;1.53;;
23768;SDS011;12064;50.890;5.424;2023-02-07T08:04:44;3.72;;;1.80;;
23768;SDS011;12064;50.890;5.424;2023-02-07T08:13:35;2.23;;;1.73;;
23768;SDS011;12064;50.890;5.424;2023-02-07T08:22:26;1.60;;;1.50;;
23768;SDS011;12064;50.890;5.424;2023-02-07T08:31:17;2.55;;;1.60;;
23768;SDS011;12064;50.890;5.424;2023-02-07T08:40:08;1.80;;;1.50;;
23768;SDS011;12064;50.890;5.424;2023-02-07T08:49:01;1.70;;;1.60;;
23768;SDS011;12064;50.890;5.424;2023-02-07T08:57:52;1.90;;;1.65;;
23768;SDS011;12064;50.890;5.424;2023-02-07T09:06:43;2.10;;;1.90;;
23768;SDS011;12064;50.890;5.424;2023-02-07T09:15:34;2.03;;;1.67;;
23768;SDS011;12064;50.890;5.424;2023-02-07T09:24:24;2.60;;;1.60;;
23768;SDS011;12064;50.890;5.424;2023-02-07T09:33:16;1.83;;;1.67;;
23768;SDS011;12064;50.890;5.424;2023-02-07T09:42:23;1.52;;;1.42;;
23768;SDS011;12064;50.890;5.424;2023-02-07T09:51:23;1.85;;;1.65;;
23768;SDS011;12064;50.890;5.424;2023-02-07T10:09:39;2.00;;;1.80;;
23768;SDS011;12064;50.890;5.424;2023-02-07T10:18:45;1.75;;;1.65;;
23768;SDS011;12064;50.890;5.424;2023-02-07T10:36:48;2.42;;;1.50;;
23768;SDS011;12064;50.890;5.424;2023-02-07T10:45:44;1.50;;;1.40;;
23768;SDS011;12064;50.890;5.424;2023-02-07T10:54:48;2.03;;;1.60;;
23768;SDS011;12064;50.890;5.424;2023-02-07T11:03:44;1.48;;;1.38;;
23768;SDS011;12064;50.890;5.424;2023-02-07T11:12:42;1.73;;;1.60;;
23768;SDS011;12064;50.890;5.424;2023-02-07T11:21:41;1.52;;;1.38;;
23768;SDS011;12064;50.890;5.424;2023-02-07T11:30:37;2.00;;;1.50;;
23768;SDS011;12064;50.890;5.424;2023-02-07T11:39:31;1.38;;;1.27;;
23768;SDS011;12064;50.890;5.424;2023-02-07T11:48:27;1.52;;;1.42;;
23768;SDS011;12064;50.890;5.424;2023-02-07T11:57:20;1.50;;;1.40;;
23768;SDS011;12064;50.890;5.424;2023-02-07T12:06:13;1.52;;;1.40;;
23768;SDS011;12064;50.890;5.424;2023-02-07T12:15:14;1.50;;;1.30;;
23768;SDS011;12064;50.890;5.424;2023-02-07T12:24:14;1.80;;;1.30;;
23768;SDS011;12064;50.890;5.424;2023-02-07T13:19:42;1.48;;;1.20;;
23768;SDS011;12064;50.890;5.424;2023-02-07T13:37:50;1.23;;;1.13;;
23768;SDS011;12064;50.890;5.424;2023-02-07T13:56:02;1.70;;;1.00;;
23768;SDS011;12064;50.890;5.424;2023-02-07T14:05:31;1.30;;;1.20;;
23768;SDS011;12064;50.890;5.424;2023-02-07T14:14:36;1.30;;;1.20;;
23768;SDS011;12064;50.890;5.424;2023-02-07T14:42:16;1.20;;;1.10;;
23768;SDS011;12064;50.890;5.424;2023-02-07T14:51:15;1.38;;;1.27;;
23768;SDS011;12064;50.890;5.424;2023-02-07T15:09:03;1.10;;;1.00;;
23768;SDS011;12064;50.890;5.424;2023-02-07T15:17:58;1.20;;;1.10;;
23768;SDS011;12064;50.890;5.424;2023-02-07T15:26:58;1.13;;;1.03;;
23768;SDS011;12064;50.890;5.424;2023-02-07T15:35:50;1.27;;;1.17;;
23768;SDS011;12064;50.890;5.424;2023-02-07T15:53:40;1.52;;;1.33;;
23768;SDS011;12064;50.890;5.424;2023-02-07T16:02:34;1.23;;;1.13;;
23768;SDS011;12064;50.890;5.424;2023-02-07T16:20:19;1.30;;;1.20;;
23768;SDS011;12064;50.890;5.424;2023-02-07T16:29:20;1.30;;;1.20;;
23768;SDS011;12064;50.890;5.424;2023-02-07T16:38:16;1.10;;;1.00;;
23768;SDS011;12064;50.890;5.424;2023-02-07T16:47:08;0.85;;;0.85;;
23768;SDS011;12064;50.890;5.424;2023-02-07T16:56:01;1.20;;;1.10;;
23768;SDS011;12064;50.890;5.424;2023-02-07T17:14:05;1.20;;;1.10;;
23768;SDS011;12064;50.890;5.424;2023-02-07T17:22:56;1.00;;;1.00;;
23768;SDS011;12064;50.890;5.424;2023-02-07T17:31:47;1.65;;;1.23;;
23768;SDS011;12064;50.890;5.424;2023-02-07T17:40:39;1.40;;;1.20;;
23768;SDS011;12064;50.890;5.424;2023-02-07T17:49:30;1.25;;;1.00;;
23768;SDS011;12064;50.890;5.424;2023-02-07T17:58:20;2.33;;;1.10;;
23768;SDS011;12064;50.890;5.424;2023-02-07T18:07:14;1.20;;;1.02;;
23768;SDS011;12064;50.890;5.424;2023-02-07T18:16:06;1.02;;;1.00;;
23768;SDS011;12064;50.890;5.424;2023-02-07T18:24:59;1.85;;;1.17;;
23768;SDS011;12064;50.890;5.424;2023-02-07T18:33:50;1.25;;;1.15;;
23768;SDS011;12064;50.890;5.424;2023-02-07T18:42:42;1.40;;;1.30;;
23768;SDS011;12064;50.890;5.424;2023-02-07T18:51:32;1.50;;;1.30;;
23768;SDS011;12064;50.890;5.424;2023-02-07T19:00:23;1.52;;;1.20;;
23768;SDS011;12064;50.890;5.424;2023-02-07T19:09:14;1.95;;;1.00;;
23768;SDS011;12064;50.890;5.424;2023-02-07T19:18:08;1.20;;;1.10;;
23768;SDS011;12064;50.890;5.424;2023-02-07T19:27:00;2.17;;;1.00;;
23768;SDS011;12064;50.890;5.424;2023-02-07T19:35:50;1.33;;;1.20;;
23768;SDS011;12064;50.890;5.424;2023-02-07T19:44:41;1.30;;;1.20;;
23768;SDS011;12064;50.890;5.424;2023-02-07T19:53:32;2.38;;;1.00;;
23768;SDS011;12064;50.890;5.424;2023-02-07T20:02:22;1.07;;;0.97;;
23768;SDS011;12064;50.890;5.424;2023-02-07T20:11:14;1.00;;;1.00;;
23768;SDS011;12064;50.890;5.424;2023-02-07T20:20:06;1.17;;;1.08;;
23768;SDS011;12064;50.890;5.424;2023-02-07T20:29:09;1.20;;;1.10;;
23768;SDS011;12064;50.890;5.424;2023-02-07T20:38:03;1.23;;;1.08;;
23768;SDS011;12064;50.890;5.424;2023-02-07T20:46:57;1.30;;;1.20;;
23768;SDS011;12064;50.890;5.424;2023-02-07T20:55:50;1.27;;;1.17;;
23768;SDS011;12064;50.890;5.424;2023-02-07T21:04:40;1.55;;;1.27;;
23768;SDS011;12064;50.890;5.424;2023-02-07T21:13:38;1.25;;;1.15;;
23768;SDS011;12064;50.890;5.424;2023-02-07T21:31:42;2.33;;;1.30;;
23768;SDS011;12064;50.890;5.424;2023-02-07T21:49:27;1.25;;;1.02;;
23768;SDS011;12064;50.890;5.424;2023-02-07T21:58:18;1.10;;;1.10;;
23768;SDS011;12064;50.890;5.424;2023-02-07T22:16:03;1.30;;;1.20;;
23768;SDS011;12064;50.890;5.424;2023-02-07T22:34:11;1.50;;;1.40;;
23768;SDS011;12064;50.890;5.424;2023-02-07T22:43:03;1.23;;;1.20;;
23768;SDS011;12064;50.890;5.424;2023-02-07T22:51:59;1.25;;;1.15;;
23768;SDS011;12064;50.890;5.424;2023-02-07T23:01:00;1.40;;;1.30;;
23768;SDS011;12064;50.890;5.424;2023-02-07T23:09:52;1.50;;;1.30;;
23768;SDS011;12064;50.890;5.424;2023-02-07T23:46:45;1.40;;;1.30;;
23768;SDS011;12064;50.890;5.424;2023-02-07T23:55:39;2.03;;;1.30;;
